sensor_id;sensor_type;location;lat;lon;timestamp;P1;durP1;ratioP1;P2;durP2;ratioP2
65053;SDS011;51639;47.828;35.038;2023-04-25T00:09:53;6.33;;;2.93;;
65053;SDS011;51639;47.828;35.038;2023-04-25T00:24:55;9.80;;;2.70;;
65053;SDS011;51639;47.828;35.038;2023-04-25T00:39:58;4.33;;;2.93;;
65053;SDS011;51639;47.828;35.038;2023-04-25T00:55:00;4.30;;;2.80;;
65053;SDS011;51639;47.828;35.038;2023-04-25T01:10:02;3.67;;;2.93;;
65053;SDS011;51639;47.828;35.038;2023-04-25T01:25:06;8.70;;;3.40;;
65053;SDS011;51639;47.828;35.038;2023-04-25T01:40:09;5.30;;;3.50;;
65053;SDS011;51639;47.828;35.038;2023-04-25T01:55:12;5.90;;;3.67;;
65053;SDS011;51639;47.828;35.038;2023-04-25T02:10:14;6.40;;;2.83;;
65053;SDS011;51639;47.828;35.038;2023-04-25T02:25:17;8.23;;;3.70;;
65053;SDS011;51639;47.828;35.038;2023-04-25T02:40:21;5.40;;;3.97;;
65053;SDS011;51639;47.828;35.038;2023-04-25T02:55:23;7.63;;;3.93;;
65053;SDS011;51639;47.828;35.038;2023-04-25T03:10:28;9.43;;;3.20;;
65053;SDS011;51639;47.828;35.038;2023-04-25T03:25:30;9.43;;;3.93;;
65053;SDS011;51639;47.828;35.038;2023-04-25T03:40:32;6.73;;;3.37;;
65053;SDS011;51639;47.828;35.038;2023-04-25T03:55:34;9.53;;;4.00;;
65053;SDS011;51639;47.828;35.038;2023-04-25T04:10:36;7.03;;;4.53;;
65053;SDS011;51639;47.828;35.038;2023-04-25T04:25:39;8.23;;;3.90;;
65053;SDS011;51639;47.828;35.038;2023-04-25T04:40:41;6.07;;;3.77;;
65053;SDS011;51639;47.828;35.038;2023-04-25T04:55:46;16.87;;;3.67;;
65053;SDS011;51639;47.828;35.038;2023-04-25T05:10:49;7.33;;;4.10;;
65053;SDS011;51639;47.828;35.038;2023-04-25T05:25:51;14.57;;;3.90;;
65053;SDS011;51639;47.828;35.038;2023-04-25T05:40:53;9.37;;;5.33;;
65053;SDS011;51639;47.828;35.038;2023-04-25T05:55:55;9.17;;;4.30;;
65053;SDS011;51639;47.828;35.038;2023-04-25T06:10:57;7.30;;;3.50;;
65053;SDS011;51639;47.828;35.038;2023-04-25T06:25:59;6.07;;;3.57;;
65053;SDS011;51639;47.828;35.038;2023-04-25T06:41:01;4.80;;;2.85;;
65053;SDS011;51639;47.828;35.038;2023-04-25T06:56:03;6.93;;;3.15;;
65053;SDS011;51639;47.828;35.038;2023-04-25T07:11:05;14.77;;;3.53;;
65053;SDS011;51639;47.828;35.038;2023-04-25T07:26:08;4.53;;;2.97;;
65053;SDS011;51639;47.828;35.038;2023-04-25T07:41:09;8.02;;;3.63;;
65053;SDS011;51639;47.828;35.038;2023-04-25T07:56:11;7.18;;;3.42;;
65053;SDS011;51639;47.828;35.038;2023-04-25T08:11:13;7.72;;;4.60;;
65053;SDS011;51639;47.828;35.038;2023-04-25T08:26:17;5.63;;;3.60;;
65053;SDS011;51639;47.828;35.038;2023-04-25T08:41:19;7.30;;;3.63;;
65053;SDS011;51639;47.828;35.038;2023-04-25T08:56:22;10.70;;;4.60;;
65053;SDS011;51639;47.828;35.038;2023-04-25T09:11:24;9.10;;;4.72;;
65053;SDS011;51639;47.828;35.038;2023-04-25T09:26:27;8.77;;;4.23;;
65053;SDS011;51639;47.828;35.038;2023-04-25T09:41:29;12.80;;;6.07;;
65053;SDS011;51639;47.828;35.038;2023-04-25T09:56:31;10.90;;;6.03;;
65053;SDS011;51639;47.828;35.038;2023-04-25T10:11:38;14.47;;;5.77;;
65053;SDS011;51639;47.828;35.038;2023-04-25T10:26:41;9.13;;;5.23;;
65053;SDS011;51639;47.828;35.038;2023-04-25T10:41:47;11.13;;;6.30;;
65053;SDS011;51639;47.828;35.038;2023-04-25T10:56:54;10.90;;;5.97;;
65053;SDS011;51639;47.828;35.038;2023-04-25T11:11:56;9.02;;;5.32;;
65053;SDS011;51639;47.828;35.038;2023-04-25T11:27:00;9.37;;;5.60;;
65053;SDS011;51639;47.828;35.038;2023-04-25T11:42:07;7.10;;;4.73;;
65053;SDS011;51639;47.828;35.038;2023-04-25T11:57:14;7.38;;;4.57;;
65053;SDS011;51639;47.828;35.038;2023-04-25T12:12:16;7.35;;;4.18;;
65053;SDS011;51639;47.828;35.038;2023-04-25T12:27:18;7.05;;;3.13;;
65053;SDS011;51639;47.828;35.038;2023-04-25T12:42:21;5.55;;;3.72;;
65053;SDS011;51639;47.828;35.038;2023-04-25T12:57:23;5.22;;;3.53;;
65053;SDS011;51639;47.828;35.038;2023-04-25T13:12:25;4.80;;;2.97;;
65053;SDS011;51639;47.828;35.038;2023-04-25T13:27:27;10.30;;;3.42;;
65053;SDS011;51639;47.828;35.038;2023-04-25T13:42:29;8.43;;;5.68;;
65053;SDS011;51639;47.828;35.038;2023-04-25T13:57:31;12.85;;;8.05;;
65053;SDS011;51639;47.828;35.038;2023-04-25T14:12:39;10.43;;;4.93;;
65053;SDS011;51639;47.828;35.038;2023-04-25T14:27:42;7.75;;;3.58;;
65053;SDS011;51639;47.828;35.038;2023-04-25T14:42:44;6.03;;;3.60;;
65053;SDS011;51639;47.828;35.038;2023-04-25T14:57:46;7.53;;;3.20;;
65053;SDS011;51639;47.828;35.038;2023-04-25T15:12:48;6.47;;;3.75;;
65053;SDS011;51639;47.828;35.038;2023-04-25T15:27:51;5.03;;;3.92;;
65053;SDS011;51639;47.828;35.038;2023-04-25T15:42:54;9.40;;;4.20;;
65053;SDS011;51639;47.828;35.038;2023-04-25T15:57:56;4.63;;;3.58;;
65053;SDS011;51639;47.828;35.038;2023-04-25T16:12:58;4.90;;;3.40;;
65053;SDS011;51639;47.828;35.038;2023-04-25T16:28:00;6.45;;;3.80;;
65053;SDS011;51639;47.828;35.038;2023-04-25T16:43:02;5.35;;;3.65;;
65053;SDS011;51639;47.828;35.038;2023-04-25T16:58:04;9.57;;;4.60;;
65053;SDS011;51639;47.828;35.038;2023-04-25T17:13:10;5.90;;;4.40;;
65053;SDS011;51639;47.828;35.038;2023-04-25T17:28:13;4.77;;;3.63;;
65053;SDS011;51639;47.828;35.038;2023-04-25T17:43:15;8.33;;;4.10;;
65053;SDS011;51639;47.828;35.038;2023-04-25T17:58:20;5.67;;;3.97;;
65053;SDS011;51639;47.828;35.038;2023-04-25T18:13:22;5.70;;;3.20;;
65053;SDS011;51639;47.828;35.038;2023-04-25T18:28:25;5.63;;;3.57;;
65053;SDS011;51639;47.828;35.038;2023-04-25T18:43:27;5.93;;;3.43;;
65053;SDS011;51639;47.828;35.038;2023-04-25T18:58:29;5.27;;;3.57;;
65053;SDS011;51639;47.828;35.038;2023-04-25T19:13:31;7.03;;;3.40;;
65053;SDS011;51639;47.828;35.038;2023-04-25T19:28:33;4.50;;;3.30;;
65053;SDS011;51639;47.828;35.038;2023-04-25T19:43:35;7.37;;;4.10;;
65053;SDS011;51639;47.828;35.038;2023-04-25T19:58:37;7.70;;;5.00;;
65053;SDS011;51639;47.828;35.038;2023-04-25T20:13:39;8.87;;;5.70;;
65053;SDS011;51639;47.828;35.038;2023-04-25T20:28:41;10.10;;;7.53;;
65053;SDS011;51639;47.828;35.038;2023-04-25T20:43:43;8.03;;;4.63;;
65053;SDS011;51639;47.828;35.038;2023-04-25T20:58:46;9.90;;;4.93;;
65053;SDS011;51639;47.828;35.038;2023-04-25T21:13:48;10.07;;;4.73;;
65053;SDS011;51639;47.828;35.038;2023-04-25T21:28:50;8.17;;;4.83;;
65053;SDS011;51639;47.828;35.038;2023-04-25T21:43:52;8.03;;;5.53;;
65053;SDS011;51639;47.828;35.038;2023-04-25T21:58:54;10.00;;;5.70;;
65053;SDS011;51639;47.828;35.038;2023-04-25T22:13:56;9.97;;;4.67;;
65053;SDS011;51639;47.828;35.038;2023-04-25T22:28:58;8.90;;;4.20;;
65053;SDS011;51639;47.828;35.038;2023-04-25T22:44:00;6.80;;;3.80;;
65053;SDS011;51639;47.828;35.038;2023-04-25T22:59:02;6.53;;;3.47;;
65053;SDS011;51639;47.828;35.038;2023-04-25T23:14:04;6.93;;;3.97;;
65053;SDS011;51639;47.828;35.038;2023-04-25T23:29:07;5.20;;;3.13;;
65053;SDS011;51639;47.828;35.038;2023-04-25T23:44:08;5.40;;;3.13;;
65053;SDS011;51639;47.828;35.038;2023-04-25T23:59:11;7.57;;;3.43;;
